This is the latest recevied weather packets stored in our database for station/object OE6CUD-6. If no packets are shown the sender has not sent any weather packets the latest 10 day(s).
| Time | Temp. | Humidity | Pressure | Rain* | Wind** | Luminosity | Snow |
|---|---|---|---|---|---|---|---|
| 1777733129 | 25.56° C | 42% | 1020.8 hPa | 0 mm | - | 499 W/m² | - |
| 1777732829 | 25° C | 41% | 1020.7 hPa | 0 mm | - | 512 W/m² | - |
| 1777732531 | 24.44° C | 41% | 1020.6 hPa | 0 mm | - | 524 W/m² | - |
| 1777729990 | 25.56° C | 41% | 1021.3 hPa | 0 mm | - | 631 W/m² | - |
| 1777722303 | 24.44° C | 43% | 1022.5 hPa | 0 mm | - | 807 W/m² | - |
| 1777721401 | 25° C | 44% | 1022.7 hPa | 0 mm | - | 782 W/m² | - |
| 1777720177 | 23.89° C | 44% | 1023.1 hPa | 0 mm | - | 821 W/m² | - |
| 1777720041 | 23.89° C | 44% | 1023.1 hPa | 0 mm | - | 821 W/m² | - |
| 1777717435 | 22.78° C | 47% | 1023.4 hPa | 0 mm | - | 703 W/m² | - |
| 1777716531 | 23.33° C | 46% | 1023.7 hPa | 0 mm | - | 803 W/m² | - |
| 1777715629 | 22.22° C | 48% | 1023.7 hPa | 0 mm | - | 740 W/m² | - |
| 1777715029 | 22.22° C | 49% | 1023.8 hPa | 0 mm | - | 777 W/m² | - |
| 1777714426 | 22.78° C | 49% | 1023.9 hPa | 0 mm | - | 765 W/m² | - |
| 1777714127 | 22.22° C | 47% | 1024 hPa | 0 mm | - | 759 W/m² | - |
| 1777713527 | 21.67° C | 50% | 1024.1 hPa | 0 mm | - | 744 W/m² | - |
| 1777712778 | 21.11° C | 50% | 1024.2 hPa | 0 mm | - | 721 W/m² | - |
| 1777710789 | 20° C | 50% | 1024.3 hPa | 0 mm | - | 241 W/m² | - |
| 1777709888 | 20.56° C | 50% | 1024.5 hPa | 0 mm | - | 635 W/m² | - |
| 1777708241 | 20° C | 55% | 1024.7 hPa | 0 mm | - | 454 W/m² | - |
| 1777706268 | 18.33° C | 58% | 1024.6 hPa | 0 mm | - | 441 W/m² | - |
| 1777705967 | 17.22° C | 60% | 1024.4 hPa | 0 mm | - | 445 W/m² | - |
| 1777702923 | 12.78° C | 74% | 1024 hPa | 0 mm | - | 33 W/m² | - |
| 1777700793 | 10.56° C | 83% | 1023.9 hPa | 0 mm | - | 30 W/m² | - |
| 1777700492 | 10.56° C | 83% | 1023.8 hPa | 0 mm | - | 28 W/m² | - |
| 1777697647 | 6.11° C | 97% | 1023.1 hPa | 0 mm | - | 23 W/m² | - |
* Rain latest hour (hover to see other rain measurements)
** Current wind speed in m/s (hover to see current wind gust speed)